createdAt,value
2022-08-14T00:02:07.158Z,4.80
2022-08-14T00:04:42.418Z,4.10
2022-08-14T00:10:49.977Z,5.15
2022-08-14T00:13:08.291Z,5.35
2022-08-14T00:15:48.056Z,4.20
2022-08-14T00:18:30.915Z,4.47
2022-08-14T00:21:11.185Z,6.00
2022-08-14T00:23:39.137Z,4.90
2022-08-14T00:26:08.487Z,4.80
2022-08-14T00:28:49.434Z,4.40
2022-08-14T00:31:18.225Z,5.15
2022-08-14T00:33:51.857Z,5.95
2022-08-14T00:36:36.246Z,5.72
2022-08-14T00:39:09.281Z,5.18
2022-08-14T00:41:38.865Z,3.88
2022-08-14T00:44:07.030Z,4.38
2022-08-14T00:46:36.549Z,4.47
2022-08-14T00:49:05.067Z,5.07
2022-08-14T00:51:36.779Z,4.03
2022-08-14T00:54:43.728Z,4.97
2022-08-14T00:57:31.417Z,3.05
2022-08-14T01:02:45.430Z,5.03
2022-08-14T01:05:26.484Z,4.90
2022-08-14T01:08:50.772Z,3.70
2022-08-14T01:10:58.031Z,4.30
2022-08-14T01:13:42.156Z,3.85
2022-08-14T01:16:16.493Z,3.67
2022-08-14T01:19:05.350Z,4.00
2022-08-14T01:21:52.747Z,3.88
2022-08-14T01:24:23.036Z,3.92
2022-08-14T01:27:00.636Z,4.47
2022-08-14T01:30:03.081Z,3.67
2022-08-14T01:32:37.357Z,3.15
2022-08-14T01:35:17.422Z,4.97
2022-08-14T01:37:56.644Z,3.67
2022-08-14T01:40:37.071Z,10.23
2022-08-14T01:43:15.866Z,4.60
2022-08-14T01:46:06.604Z,5.18
2022-08-14T01:48:36.978Z,3.50
2022-08-14T01:51:19.071Z,4.97
2022-08-14T01:53:54.679Z,4.53
2022-08-14T01:56:36.989Z,3.97
2022-08-14T01:59:22.130Z,3.83
2022-08-14T02:02:19.712Z,3.17
2022-08-14T02:04:57.314Z,3.70
2022-08-14T02:07:34.223Z,2.63
2022-08-14T02:10:13.175Z,4.95
2022-08-14T02:12:54.149Z,3.53
2022-08-14T02:15:24.963Z,4.63
2022-08-14T02:17:52.098Z,4.32
2022-08-14T02:20:23.741Z,5.28
2022-08-14T02:22:54.544Z,4.07
2022-08-14T02:25:22.830Z,4.25
2022-08-14T02:28:25.799Z,4.72
2022-08-14T02:30:44.714Z,4.57
2022-08-14T02:33:12.659Z,4.38
2022-08-14T02:35:43.628Z,5.38
2022-08-14T02:38:30.608Z,5.38
2022-08-14T02:41:01.500Z,4.72
2022-08-14T02:43:37.390Z,4.90
2022-08-14T02:46:20.721Z,6.38
2022-08-14T02:49:05.478Z,7.03
2022-08-14T02:51:55.606Z,4.20
2022-08-14T02:57:15.931Z,4.88
2022-08-14T02:59:56.422Z,4.50
2022-08-14T03:02:49.569Z,4.40
2022-08-14T03:05:12.361Z,7.15
2022-08-14T03:07:40.867Z,5.43
2022-08-14T03:10:27.074Z,5.57
2022-08-14T03:12:57.329Z,5.05
2022-08-14T03:15:24.647Z,4.40
2022-08-14T03:17:56.940Z,4.93
2022-08-14T03:20:28.046Z,4.68
2022-08-14T03:22:57.165Z,5.20
2022-08-14T03:25:23.959Z,4.30
2022-08-14T03:27:58.572Z,4.45
2022-08-14T03:30:39.308Z,5.05
2022-08-14T03:33:12.657Z,5.20
2022-08-14T03:36:07.667Z,5.47
2022-08-14T03:39:16.002Z,6.47
2022-08-14T03:41:18.288Z,4.60
2022-08-14T03:43:56.988Z,4.47
2022-08-14T03:46:51.808Z,4.90
2022-08-14T03:49:24.252Z,6.28
2022-08-14T03:51:55.639Z,6.38
2022-08-14T03:54:24.729Z,6.65
2022-08-14T03:56:51.703Z,5.05
2022-08-14T03:59:19.819Z,5.85
2022-08-14T04:02:01.661Z,5.97
2022-08-14T04:04:30.708Z,5.97
2022-08-14T04:06:59.653Z,7.55
2022-08-14T04:09:27.639Z,5.00
2022-08-14T04:11:56.014Z,3.35
2022-08-14T04:14:23.975Z,5.10
2022-08-14T04:16:52.624Z,5.10
2022-08-14T04:19:20.606Z,4.78
2022-08-14T04:22:01.867Z,5.20
2022-08-14T04:24:38.580Z,4.70
2022-08-14T04:29:57.482Z,3.90
2022-08-14T04:33:01.291Z,3.97
2022-08-14T04:35:13.290Z,5.25
2022-08-14T04:38:36.578Z,5.60
2022-08-14T04:41:15.606Z,8.18
2022-08-14T04:43:42.750Z,5.78
2022-08-14T04:46:55.593Z,4.72
2022-08-14T04:49:04.211Z,6.13
2022-08-14T04:51:46.342Z,4.45
2022-08-14T04:54:16.735Z,4.97
2022-08-14T04:56:44.098Z,5.38
2022-08-14T04:59:31.030Z,4.97
2022-08-14T05:01:58.447Z,5.22
2022-08-14T05:04:45.458Z,5.32
2022-08-14T05:07:53.779Z,4.88
2022-08-14T05:10:16.720Z,4.00
2022-08-14T05:13:20.771Z,4.85
2022-08-14T05:15:39.493Z,4.55
2022-08-14T05:18:17.259Z,3.97
2022-08-14T05:21:57.007Z,3.90
2022-08-14T05:23:54.601Z,2.50
2022-08-14T05:26:22.378Z,3.15
2022-08-14T05:28:49.319Z,5.97
2022-08-14T05:31:20.715Z,3.75
2022-08-14T05:33:56.568Z,4.68
2022-08-14T05:36:43.229Z,8.38
2022-08-14T05:39:18.012Z,5.68
2022-08-14T05:41:53.000Z,4.85
2022-08-14T05:44:39.263Z,9.35
2022-08-14T05:47:06.505Z,5.68
2022-08-14T05:49:34.551Z,5.68
2022-08-14T05:52:02.620Z,7.65
2022-08-14T05:54:35.567Z,4.75
2022-08-14T05:57:04.922Z,5.68
2022-08-14T05:59:39.170Z,4.60
2022-08-14T06:02:11.271Z,4.00
2022-08-14T06:04:40.015Z,3.05
2022-08-14T06:07:07.150Z,4.40
2022-08-14T06:09:40.604Z,3.92
2022-08-14T06:12:11.878Z,3.75
2022-08-14T06:14:39.468Z,4.40
2022-08-14T06:17:47.047Z,4.63
2022-08-14T06:20:15.509Z,6.53
2022-08-14T06:22:50.770Z,4.53
2022-08-14T06:25:19.599Z,5.13
2022-08-14T06:27:49.672Z,6.10
2022-08-14T06:30:24.098Z,5.15
2022-08-14T06:33:08.807Z,3.65
2022-08-14T06:35:35.956Z,4.13
2022-08-14T06:38:04.519Z,3.50
2022-08-14T06:40:35.096Z,4.53
2022-08-14T06:43:06.845Z,4.88
2022-08-14T06:45:37.002Z,5.57
2022-08-14T06:48:17.218Z,3.10
2022-08-14T06:50:45.742Z,3.60
2022-08-14T06:53:16.467Z,2.60
2022-08-14T06:55:49.800Z,4.65
2022-08-14T06:59:05.400Z,2.13
2022-08-14T07:01:56.492Z,2.58
2022-08-14T07:04:42.004Z,3.90
2022-08-14T07:07:09.063Z,2.70
2022-08-14T07:09:43.911Z,2.83
2022-08-14T07:12:55.098Z,1.90
2022-08-14T07:15:06.391Z,1.58
2022-08-14T07:18:12.203Z,2.25
2022-08-14T07:20:41.077Z,2.33
2022-08-14T07:23:19.873Z,1.65
2022-08-14T07:25:50.002Z,1.85
2022-08-14T07:28:27.306Z,1.63
2022-08-14T07:31:04.380Z,2.22
2022-08-14T07:33:41.892Z,1.90
2022-08-14T07:36:27.544Z,2.08
2022-08-14T07:38:59.268Z,1.77
2022-08-14T07:41:33.727Z,1.63
2022-08-14T07:44:22.590Z,1.60
2022-08-14T07:46:49.554Z,2.60
2022-08-14T07:49:17.784Z,2.97
2022-08-14T07:51:49.246Z,1.58
2022-08-14T07:54:23.669Z,1.40
2022-08-14T07:57:06.549Z,2.42
2022-08-14T07:59:43.720Z,2.45
2022-08-14T08:02:17.082Z,2.95
2022-08-14T08:04:50.709Z,2.97
2022-08-14T08:07:42.238Z,6.65
2022-08-14T08:11:02.294Z,7.32
2022-08-14T08:13:49.095Z,9.20
2022-08-14T08:16:24.088Z,12.13
2022-08-14T08:21:39.598Z,7.80
2022-08-14T08:24:11.254Z,7.28
2022-08-14T08:26:59.565Z,6.97
2022-08-14T08:29:29.011Z,4.38
2022-08-14T08:32:01.582Z,2.30
2022-08-14T08:34:32.146Z,2.13
2022-08-14T08:37:01.748Z,1.77
2022-08-14T08:40:02.829Z,1.27
2022-08-14T08:42:31.666Z,4.13
2022-08-14T08:45:11.842Z,2.40
2022-08-14T08:47:40.610Z,2.92
2022-08-14T08:50:23.379Z,5.40
2022-08-14T08:53:03.068Z,5.57
2022-08-14T08:55:32.507Z,5.25
2022-08-14T08:58:16.129Z,4.00
2022-08-14T09:00:48.801Z,6.18
2022-08-14T09:03:21.700Z,4.13
2022-08-14T09:06:53.959Z,5.13
2022-08-14T09:08:54.403Z,6.05
2022-08-14T09:11:24.547Z,3.30
2022-08-14T09:13:53.135Z,4.03
2022-08-14T09:16:23.531Z,5.72
2022-08-14T09:18:53.057Z,3.03
2022-08-14T09:21:40.000Z,3.70
2022-08-14T09:24:27.986Z,2.63
2022-08-14T09:29:59.745Z,4.20
2022-08-14T09:32:58.633Z,4.43
2022-08-14T09:36:04.343Z,3.83
2022-08-14T09:38:37.562Z,5.25
2022-08-14T09:41:22.553Z,5.18
2022-08-14T09:44:06.498Z,3.78
2022-08-14T09:46:36.586Z,2.60
2022-08-14T09:49:11.985Z,4.85
2022-08-14T09:51:51.743Z,2.97
2022-08-14T09:54:37.502Z,3.28
2022-08-14T09:57:08.998Z,2.83
2022-08-14T09:59:46.401Z,4.35
2022-08-14T10:02:28.110Z,4.60
2022-08-14T10:05:14.171Z,5.82
2022-08-14T10:10:41.608Z,4.78
2022-08-14T10:13:22.470Z,3.95
2022-08-14T10:15:51.694Z,6.55
2022-08-14T10:18:21.399Z,4.97
2022-08-14T10:20:57.917Z,4.85
2022-08-14T10:23:30.041Z,4.47
2022-08-14T10:26:07.098Z,3.65
2022-08-14T10:29:14.008Z,4.68
2022-08-14T10:31:40.136Z,3.97
2022-08-14T10:34:14.027Z,4.93
2022-08-14T10:36:47.799Z,4.13
2022-08-14T10:39:20.694Z,6.57
2022-08-14T10:41:49.376Z,6.70
2022-08-14T10:44:29.831Z,7.93
2022-08-14T10:47:38.960Z,6.80
2022-08-14T10:50:06.548Z,14.02
2022-08-14T10:52:35.807Z,6.25
2022-08-14T10:55:22.734Z,8.95
2022-08-14T10:57:51.236Z,6.95
2022-08-14T11:00:29.813Z,6.13
2022-08-14T11:03:10.908Z,4.50
2022-08-14T11:05:42.286Z,5.20
2022-08-14T11:08:12.975Z,5.15
2022-08-14T11:10:47.966Z,3.85
2022-08-14T11:13:27.391Z,5.10
2022-08-14T11:16:00.591Z,4.40
2022-08-14T11:18:30.237Z,4.65
2022-08-14T11:21:01.879Z,4.00
2022-08-14T11:23:38.236Z,5.13
2022-08-14T11:26:10.362Z,4.90
2022-08-14T11:28:46.297Z,9.27
2022-08-14T11:31:20.151Z,4.65
2022-08-14T11:33:55.289Z,5.90
2022-08-14T11:36:56.997Z,5.32
2022-08-14T11:39:34.901Z,6.25
2022-08-14T11:43:07.895Z,4.65
2022-08-14T11:45:17.036Z,4.20
2022-08-14T11:48:13.729Z,7.15
2022-08-14T11:50:52.853Z,6.85
2022-08-14T11:53:41.939Z,6.68
2022-08-14T11:56:11.061Z,6.38
2022-08-14T11:58:38.841Z,6.80
2022-08-14T12:01:09.505Z,6.82
2022-08-14T12:03:52.233Z,7.65
2022-08-14T12:06:28.619Z,15.20
2022-08-14T12:09:08.485Z,7.55
2022-08-14T12:11:43.835Z,4.15
2022-08-14T12:14:29.171Z,5.55
2022-08-14T12:17:12.069Z,4.70
2022-08-14T12:19:50.670Z,3.80
2022-08-14T12:22:29.833Z,5.25
2022-08-14T12:25:15.992Z,4.63
2022-08-14T12:27:53.374Z,5.45
2022-08-14T12:30:43.888Z,6.18
2022-08-14T12:33:26.972Z,6.40
2022-08-14T12:36:00.720Z,6.70
2022-08-14T12:38:36.588Z,5.70
2022-08-14T12:41:11.105Z,5.03
2022-08-14T12:43:56.622Z,7.63
2022-08-14T12:46:32.126Z,5.53
2022-08-14T12:49:04.498Z,7.30
2022-08-14T12:51:31.621Z,6.13
2022-08-14T12:54:00.013Z,6.75
2022-08-14T12:56:32.989Z,5.75
2022-08-14T12:59:00.772Z,7.25
2022-08-14T13:01:31.259Z,7.85
2022-08-14T13:04:14.122Z,6.35
2022-08-14T13:06:50.608Z,5.32
2022-08-14T13:09:19.170Z,6.60
2022-08-14T13:11:58.673Z,3.88
2022-08-14T13:14:43.953Z,4.97
2022-08-14T13:17:29.427Z,5.18
2022-08-14T13:20:10.238Z,5.22
2022-08-14T13:22:44.520Z,8.70
2022-08-14T13:25:18.753Z,5.25
2022-08-14T13:27:47.755Z,4.90
2022-08-14T13:30:23.320Z,3.47
2022-08-14T13:32:57.746Z,7.00
2022-08-14T13:35:25.685Z,4.75
2022-08-14T13:37:54.088Z,5.05
2022-08-14T13:40:26.685Z,4.57
2022-08-14T13:42:57.288Z,3.80
2022-08-14T13:45:33.963Z,6.28
2022-08-14T13:48:28.530Z,3.58
2022-08-14T13:51:03.614Z,6.38
2022-08-14T13:54:10.072Z,3.20
2022-08-14T13:57:00.960Z,5.40
2022-08-14T13:59:48.433Z,6.95
2022-08-14T14:02:47.664Z,5.22
2022-08-14T14:05:21.067Z,7.07
2022-08-14T14:07:50.798Z,5.50
2022-08-14T14:10:28.073Z,7.72
2022-08-14T14:15:57.810Z,4.20
2022-08-14T14:18:29.942Z,4.63
2022-08-14T14:21:22.049Z,3.25
2022-08-14T14:23:49.408Z,9.38
2022-08-14T14:26:23.068Z,6.72
2022-08-14T14:28:57.218Z,7.50
2022-08-14T14:31:29.915Z,8.38
2022-08-14T14:34:28.968Z,6.85
2022-08-14T14:37:15.680Z,4.10
2022-08-14T14:42:47.516Z,4.82
2022-08-14T14:45:20.810Z,6.50
2022-08-14T14:47:59.103Z,10.88
2022-08-14T14:50:26.775Z,5.97
2022-08-14T14:53:12.416Z,8.02
2022-08-14T14:56:46.814Z,3.28
2022-08-14T14:58:32.269Z,5.63
2022-08-14T15:01:00.566Z,5.57
2022-08-14T15:03:30.096Z,4.40
2022-08-14T15:05:57.708Z,4.70
2022-08-14T15:08:26.900Z,7.82
2022-08-14T15:11:13.661Z,7.38
2022-08-14T15:13:43.198Z,7.40
2022-08-14T15:16:10.784Z,5.57
2022-08-14T15:18:40.074Z,3.83
2022-08-14T15:21:14.581Z,5.28
2022-08-14T15:23:44.759Z,5.30
2022-08-14T15:26:23.390Z,6.35
2022-08-14T15:29:02.708Z,5.63
2022-08-14T15:31:31.736Z,5.90
2022-08-14T15:34:45.847Z,5.40
2022-08-14T15:37:10.980Z,4.95
2022-08-14T15:39:59.038Z,4.47
2022-08-14T15:42:29.147Z,7.57
2022-08-14T15:45:01.184Z,6.95
2022-08-14T15:47:33.081Z,4.30
2022-08-14T15:50:19.473Z,4.72
2022-08-14T15:52:46.802Z,3.97
2022-08-14T15:55:15.560Z,8.32
2022-08-14T15:57:51.314Z,6.50
2022-08-14T16:00:51.898Z,4.68
2022-08-14T16:03:27.690Z,5.63
2022-08-14T16:06:10.786Z,5.45
2022-08-14T16:08:38.622Z,5.20
2022-08-14T16:11:24.931Z,6.28
2022-08-14T16:13:52.215Z,9.80
2022-08-14T16:16:47.187Z,7.30
2022-08-14T16:19:18.943Z,8.18
2022-08-14T16:22:02.213Z,9.70
2022-08-14T16:24:36.018Z,8.88
2022-08-14T16:27:34.097Z,5.38
2022-08-14T16:30:20.601Z,5.35
2022-08-14T16:32:56.105Z,8.18
2022-08-14T16:35:42.966Z,7.43
2022-08-14T16:38:44.789Z,4.63
2022-08-14T16:41:22.867Z,3.30
2022-08-14T16:44:04.919Z,8.02
2022-08-14T16:46:43.046Z,5.20
2022-08-14T16:49:12.918Z,9.60
2022-08-14T16:51:41.577Z,3.90
2022-08-14T16:54:33.884Z,8.98
2022-08-14T16:57:17.059Z,6.20
2022-08-14T16:59:52.396Z,6.88
2022-08-14T17:02:39.122Z,5.55
2022-08-14T17:05:22.066Z,4.93
2022-08-14T17:08:28.601Z,5.53
2022-08-14T17:10:55.612Z,3.35
2022-08-14T17:13:47.418Z,5.22
2022-08-14T17:16:25.064Z,3.75
2022-08-14T17:19:00.052Z,8.40
2022-08-14T17:21:50.398Z,6.25
2022-08-14T17:24:57.979Z,6.65
2022-08-14T17:27:08.534Z,5.38
2022-08-14T17:29:56.505Z,6.63
2022-08-14T17:32:55.871Z,6.47
2022-08-14T17:35:57.973Z,6.80
2022-08-14T17:41:23.882Z,9.15
2022-08-14T17:46:50.176Z,6.05
2022-08-14T17:49:25.470Z,9.63
2022-08-14T17:52:17.231Z,12.10
2022-08-14T17:54:52.919Z,10.52
2022-08-14T17:57:28.453Z,6.38
2022-08-14T17:59:57.081Z,9.30
2022-08-14T18:02:30.894Z,10.02
2022-08-14T18:05:00.168Z,7.15
2022-08-14T18:08:00.197Z,10.77
2022-08-14T18:10:54.767Z,5.50
2022-08-14T18:13:08.067Z,8.25
2022-08-14T18:15:41.405Z,6.03
2022-08-14T18:18:45.986Z,8.07
2022-08-14T18:21:42.677Z,5.38
2022-08-14T18:24:29.651Z,7.47
2022-08-14T18:27:14.934Z,6.15
2022-08-14T18:29:56.261Z,8.85
2022-08-14T18:32:27.614Z,10.52
2022-08-14T18:35:10.989Z,4.50
2022-08-14T18:37:41.443Z,6.75
2022-08-14T18:40:17.756Z,7.07
2022-08-14T18:43:03.727Z,7.10
2022-08-14T18:45:41.377Z,7.60
2022-08-14T18:48:19.825Z,13.18
2022-08-14T18:50:59.440Z,9.18
2022-08-14T18:53:34.228Z,8.57
2022-08-14T18:56:09.850Z,7.88
2022-08-14T18:58:49.507Z,9.63
2022-08-14T19:01:30.359Z,9.50
2022-08-14T19:04:36.356Z,12.68
2022-08-14T19:07:19.070Z,7.82
2022-08-14T19:09:52.339Z,10.10
2022-08-14T19:12:53.082Z,12.80
2022-08-14T19:15:25.703Z,9.50
2022-08-14T19:18:14.107Z,9.40
2022-08-14T19:20:52.575Z,9.23
2022-08-14T19:23:21.662Z,8.15
2022-08-14T19:25:56.637Z,8.18
2022-08-14T19:28:32.002Z,8.93
2022-08-14T19:31:42.513Z,12.02
2022-08-14T19:34:33.758Z,9.60
2022-08-14T19:37:06.009Z,8.05
2022-08-14T19:39:48.137Z,10.65
2022-08-14T19:42:28.174Z,10.73
2022-08-14T19:44:57.683Z,9.80
2022-08-14T19:47:40.988Z,10.45
2022-08-14T19:50:38.373Z,11.25
2022-08-14T19:53:10.842Z,14.20
2022-08-14T19:55:45.504Z,11.70
2022-08-14T19:58:13.274Z,15.55
2022-08-14T20:00:52.265Z,14.45
2022-08-14T20:03:23.469Z,12.35
2022-08-14T20:06:05.510Z,8.93
2022-08-14T20:10:58.708Z,11.73
2022-08-14T20:12:01.969Z,9.13
2022-08-14T20:14:30.738Z,12.00
2022-08-14T20:17:05.609Z,12.32
2022-08-14T20:19:38.027Z,11.85
2022-08-14T20:22:37.443Z,15.88
2022-08-14T20:25:11.447Z,13.82
2022-08-14T20:27:44.042Z,11.45
2022-08-14T20:30:36.410Z,13.85
2022-08-14T20:33:10.992Z,11.40
2022-08-14T20:35:49.756Z,11.23
2022-08-14T20:38:31.778Z,13.45
2022-08-14T20:41:08.603Z,16.38
2022-08-14T20:43:58.528Z,15.32
2022-08-14T20:47:03.483Z,11.00
2022-08-14T20:49:35.480Z,10.68
2022-08-14T20:52:20.099Z,11.50
2022-08-14T20:54:51.212Z,10.48
2022-08-14T20:57:43.825Z,10.55
2022-08-14T21:00:13.288Z,12.48
2022-08-14T21:02:50.031Z,8.30
2022-08-14T21:05:33.474Z,8.48
2022-08-14T21:08:09.973Z,10.93
2022-08-14T21:10:49.067Z,11.32
2022-08-14T21:14:08.647Z,11.98
2022-08-14T21:16:32.976Z,10.48
2022-08-14T21:19:01.791Z,13.98
2022-08-14T21:21:41.423Z,9.75
2022-08-14T21:24:38.469Z,10.00
2022-08-14T21:27:13.147Z,10.88
2022-08-14T21:30:08.555Z,9.50
2022-08-14T21:32:50.062Z,9.98
2022-08-14T21:35:25.978Z,11.73
2022-08-14T21:37:53.902Z,10.35
2022-08-14T21:40:41.642Z,9.43
2022-08-14T21:43:17.290Z,9.23
2022-08-14T21:45:53.385Z,9.40
2022-08-14T21:48:29.924Z,9.23
2022-08-14T21:51:02.208Z,11.82
2022-08-14T21:53:58.748Z,10.07
2022-08-14T21:56:37.226Z,13.65
2022-08-14T21:59:10.737Z,9.90
2022-08-14T22:02:00.515Z,12.15
2022-08-14T22:04:33.408Z,11.75
2022-08-14T22:07:07.278Z,10.57
2022-08-14T22:09:36.176Z,12.00
2022-08-14T22:12:07.254Z,12.25
2022-08-14T22:14:43.389Z,12.05
2022-08-14T22:17:16.334Z,14.02
2022-08-14T22:19:54.443Z,12.68
2022-08-14T22:22:26.657Z,12.98
2022-08-14T22:25:00.126Z,15.55
2022-08-14T22:27:55.918Z,13.45
2022-08-14T22:30:25.231Z,15.55
2022-08-14T22:32:57.960Z,13.45
2022-08-14T22:35:26.543Z,13.50
2022-08-14T22:38:34.647Z,11.57
2022-08-14T22:41:14.884Z,16.20
2022-08-14T22:43:35.244Z,10.70
2022-08-14T22:46:06.094Z,13.10
2022-08-14T22:48:41.612Z,11.90
2022-08-14T22:51:08.533Z,11.57
2022-08-14T22:53:40.626Z,10.98
2022-08-14T22:56:20.851Z,8.40
2022-08-14T22:59:09.884Z,7.15
2022-08-14T23:01:56.222Z,8.48
2022-08-14T23:04:35.456Z,7.75
2022-08-14T23:07:22.983Z,6.55
2022-08-14T23:09:57.469Z,8.57
2022-08-14T23:12:47.581Z,6.75
2022-08-14T23:15:40.180Z,7.55
2022-08-14T23:18:13.234Z,4.00
2022-08-14T23:20:44.246Z,4.18
2022-08-14T23:23:13.678Z,5.75
2022-08-14T23:25:59.639Z,5.40
2022-08-14T23:28:33.374Z,7.63
2022-08-14T23:31:34.932Z,3.85
2022-08-14T23:34:08.786Z,10.75
2022-08-14T23:36:56.545Z,6.90
2022-08-14T23:39:30.173Z,5.95
2022-08-14T23:42:08.466Z,5.15
2022-08-14T23:44:37.784Z,8.57
2022-08-14T23:47:12.241Z,8.85
2022-08-14T23:50:00.430Z,4.68
2022-08-14T23:52:50.375Z,9.57
2022-08-14T23:55:16.809Z,6.50
2022-08-14T23:57:57.427Z,4.85
